createdAt,value
2017-05-19T00:44:34.787Z,13.30
2017-05-19T00:47:03.723Z,14.13
2017-05-19T00:49:32.675Z,13.75
2017-05-19T00:52:01.603Z,13.50
2017-05-19T00:54:30.589Z,14.38
2017-05-19T00:56:59.544Z,14.62
2017-05-19T00:59:28.457Z,17.75
2017-05-19T01:06:54.397Z,19.43
2017-05-19T02:11:17.306Z,22.93
2017-05-19T02:13:46.998Z,23.88
2017-05-19T02:16:15.941Z,23.38
2017-05-19T02:18:44.924Z,24.80
2017-05-19T03:52:53.313Z,17.60
2017-05-19T03:55:22.281Z,18.60
2017-05-19T03:57:51.221Z,18.07
2017-05-19T04:00:20.147Z,19.90
2017-05-19T04:02:49.121Z,20.23
2017-05-19T04:05:18.813Z,19.40
2017-05-19T04:07:47.734Z,18.90
2017-05-19T04:10:16.709Z,20.47
2017-05-19T04:12:46.367Z,18.70
2017-05-19T04:15:15.317Z,18.97
2017-05-19T04:17:45.009Z,19.65
2017-05-19T04:20:13.933Z,19.30
2017-05-19T04:22:42.859Z,21.25
2017-05-19T04:25:11.809Z,18.56
2017-05-19T04:27:41.489Z,19.22
2017-05-19T04:30:10.421Z,21.85
2017-05-19T04:32:39.378Z,19.03
2017-05-19T04:35:08.325Z,17.88
2017-05-19T04:37:37.262Z,16.88
2017-05-19T04:40:06.231Z,19.28
2017-05-19T04:42:35.169Z,19.52
2017-05-19T04:45:04.832Z,19.53
2017-05-19T04:47:33.786Z,19.35
2017-05-19T04:50:02.714Z,20.07
2017-05-19T04:52:31.680Z,20.32
2017-05-19T04:55:00.641Z,21.25
2017-05-19T04:57:29.559Z,20.97
2017-05-19T04:59:58.486Z,21.17
2017-05-19T05:02:27.437Z,19.67
2017-05-19T05:04:57.095Z,21.37
2017-05-19T05:07:26.040Z,19.92
2017-05-19T05:09:55.755Z,20.80
2017-05-19T05:12:24.686Z,20.93
2017-05-19T05:14:53.611Z,22.38
2017-05-19T05:17:22.563Z,24.32
2017-05-19T05:19:51.504Z,24.70
2017-05-19T05:22:21.818Z,22.80
2017-05-19T05:24:50.794Z,22.18
2017-05-19T05:27:19.716Z,23.63
2017-05-19T05:29:49.395Z,23.80
2017-05-19T05:32:18.338Z,23.23
2017-05-19T05:34:47.257Z,22.37
2017-05-19T05:37:16.185Z,23.50
2017-05-19T05:39:45.166Z,21.63
2017-05-19T05:42:14.091Z,22.15
2017-05-19T05:44:43.019Z,22.00
2017-05-19T05:47:12.716Z,20.77
2017-05-19T05:49:42.379Z,22.42
2017-05-19T05:52:11.312Z,21.78
2017-05-19T05:54:40.281Z,22.23
2017-05-19T05:57:09.233Z,21.93
2017-05-19T05:59:38.177Z,22.02
2017-05-19T06:02:07.145Z,23.18
2017-05-19T06:04:36.182Z,23.65
2017-05-19T06:07:05.837Z,21.55
2017-05-19T06:09:34.809Z,22.35
2017-05-19T06:12:03.729Z,22.67
2017-05-19T06:14:32.668Z,22.18
2017-05-19T06:17:02.360Z,23.70
2017-05-19T06:19:59.312Z,22.47
2017-05-19T06:22:28.261Z,22.23
2017-05-19T06:24:57.217Z,21.50
2017-05-19T06:27:26.179Z,21.10
2017-05-19T06:29:55.115Z,22.02
2017-05-19T06:32:24.047Z,22.83
2017-05-19T06:34:53.002Z,21.98
2017-05-19T06:37:21.947Z,22.48
2017-05-19T06:39:50.872Z,20.92
2017-05-19T06:42:19.830Z,21.42
2017-05-19T06:44:48.762Z,21.10
2017-05-19T06:47:17.687Z,21.78
2017-05-19T06:49:46.683Z,23.32
2017-05-19T06:52:15.616Z,19.47
2017-05-19T06:54:44.560Z,18.17
2017-05-19T06:57:13.529Z,17.17
2017-05-19T06:59:42.481Z,18.87
2017-05-19T07:02:11.421Z,18.47
2017-05-19T07:04:40.379Z,18.32
2017-05-19T07:07:09.324Z,16.73
2017-05-19T07:09:38.247Z,18.55
2017-05-19T07:12:07.238Z,19.17
2017-05-19T07:14:36.184Z,19.68
2017-05-19T07:17:05.125Z,18.43
2017-05-19T07:19:34.100Z,18.80
2017-05-19T07:22:03.046Z,18.32
2017-05-19T07:24:31.997Z,18.38
2017-05-19T07:27:00.974Z,18.60
2017-05-19T07:29:29.899Z,17.30
2017-05-19T07:31:58.848Z,20.27
2017-05-19T07:34:27.804Z,19.23
2017-05-19T07:36:56.791Z,16.40
2017-05-19T07:39:25.725Z,16.07
2017-05-19T07:41:54.700Z,15.43
2017-05-19T07:44:23.640Z,15.20
2017-05-19T07:46:52.581Z,15.28
2017-05-19T07:49:21.551Z,15.50
2017-05-19T07:51:50.493Z,14.22
2017-05-19T07:54:19.414Z,13.55
2017-05-19T07:56:48.391Z,14.17
2017-05-19T07:59:17.345Z,14.08
2017-05-19T08:01:46.293Z,15.05
2017-05-19T08:04:15.273Z,11.48
2017-05-19T08:06:44.222Z,12.50
2017-05-19T08:09:13.172Z,11.82
2017-05-19T08:11:42.133Z,11.02
2017-05-19T08:14:11.070Z,11.84
2017-05-19T08:16:39.998Z,11.40
2017-05-19T08:19:08.976Z,12.36
2017-05-19T08:21:37.923Z,10.88
2017-05-19T08:24:06.876Z,11.18
2017-05-19T08:26:35.829Z,10.28
2017-05-19T08:29:04.762Z,10.90
2017-05-19T08:31:33.704Z,11.50
2017-05-19T08:34:02.697Z,12.32
2017-05-19T08:36:31.626Z,12.80
2017-05-19T08:39:00.573Z,11.44
2017-05-19T08:41:29.545Z,12.03
2017-05-19T08:43:58.496Z,14.12
2017-05-19T08:46:27.428Z,11.95
2017-05-19T08:48:56.409Z,11.50
2017-05-19T08:51:25.342Z,11.42
2017-05-19T08:53:54.275Z,13.10
2017-05-19T08:58:51.732Z,11.80
2017-05-19T09:13:43.020Z,12.50
2017-05-19T09:18:40.453Z,10.10
2017-05-19T09:21:09.373Z,10.12
2017-05-19T09:23:38.299Z,12.26
2017-05-19T09:26:07.277Z,10.88
2017-05-19T09:28:36.226Z,11.40
2017-05-19T09:31:05.174Z,12.52
2017-05-19T09:33:34.149Z,11.82
2017-05-19T09:36:03.069Z,11.86
2017-05-19T09:38:32.004Z,12.92
2017-05-19T09:41:00.977Z,12.90
2017-05-19T09:43:29.920Z,13.70
2017-05-19T09:45:58.866Z,11.86
2017-05-19T09:48:27.840Z,14.26
2017-05-19T09:50:56.781Z,12.50
2017-05-19T09:53:25.705Z,10.78
2017-05-19T09:55:54.658Z,12.20
2017-05-19T09:58:23.602Z,15.78
2017-05-19T10:00:52.541Z,17.02
2017-05-19T10:03:21.514Z,15.56
2017-05-19T10:05:50.472Z,15.16
2017-05-19T10:08:19.425Z,16.18
2017-05-19T10:10:48.403Z,16.84
2017-05-19T10:13:17.331Z,17.78
2017-05-19T10:15:46.271Z,15.48
2017-05-19T10:18:15.232Z,19.30
2017-05-19T10:20:44.181Z,18.10
2017-05-19T10:23:13.125Z,18.60
2017-05-19T10:25:42.098Z,16.64
2017-05-19T10:28:11.046Z,17.34
2017-05-19T10:30:39.994Z,17.12
2017-05-19T10:33:08.967Z,18.36
2017-05-19T10:35:37.928Z,17.23
2017-05-19T10:38:06.874Z,16.88
2017-05-19T10:40:35.843Z,19.07
2017-05-19T10:43:04.777Z,20.20
2017-05-19T10:45:33.729Z,16.27
2017-05-19T10:48:02.690Z,18.45
2017-05-19T10:50:31.617Z,19.17
2017-05-19T10:53:00.568Z,17.97
2017-05-19T10:55:29.944Z,20.22
2017-05-19T10:57:58.893Z,18.82
2017-05-19T11:00:27.852Z,17.83
2017-05-19T11:02:56.835Z,19.62
2017-05-19T11:05:25.784Z,20.03
2017-05-19T11:07:54.737Z,18.70
2017-05-19T11:10:23.714Z,20.55
2017-05-19T11:12:52.649Z,20.25
2017-05-19T11:15:21.593Z,17.63
2017-05-19T11:17:50.572Z,18.63
2017-05-19T11:20:19.510Z,16.67
2017-05-19T11:22:48.462Z,19.15
2017-05-19T11:25:17.421Z,18.77
2017-05-19T11:27:46.358Z,19.80
2017-05-19T11:30:15.308Z,20.17
2017-05-19T11:32:44.285Z,20.12
2017-05-19T11:35:13.237Z,18.75
2017-05-19T11:37:42.170Z,17.45
2017-05-19T11:40:11.132Z,21.73
2017-05-19T11:42:40.063Z,21.63
2017-05-19T11:45:08.996Z,19.28
2017-05-19T11:47:37.997Z,17.15
2017-05-19T11:50:06.948Z,17.75
2017-05-19T11:52:35.897Z,18.98
2017-05-19T11:55:04.878Z,17.78
2017-05-19T11:57:33.822Z,20.83
2017-05-19T12:00:02.746Z,18.83
2017-05-19T12:02:31.706Z,18.42
2017-05-19T12:05:00.632Z,18.33
2017-05-19T12:07:29.585Z,17.63
2017-05-19T12:10:05.271Z,17.37
2017-05-19T12:12:34.245Z,17.38
2017-05-19T13:02:04.281Z,21.33
2017-05-19T13:34:14.909Z,28.00
2017-05-19T13:59:00.169Z,23.00
2017-05-19T14:01:29.149Z,22.93
2017-05-19T14:03:58.093Z,23.93
2017-05-19T14:06:27.015Z,24.35
2017-05-19T14:08:55.973Z,23.93
2017-05-19T14:26:15.846Z,26.10
2017-05-19T14:28:44.765Z,22.58
2017-05-19T14:31:13.738Z,24.85
2017-05-19T15:20:43.746Z,28.77
2017-05-19T15:23:12.730Z,31.52
2017-05-19T15:25:41.677Z,30.78
2017-05-19T15:28:10.619Z,31.87
2017-05-19T15:30:39.574Z,30.82
2017-05-19T15:33:08.495Z,31.87
2017-05-19T15:35:37.437Z,34.55
2017-05-19T15:38:06.410Z,32.87
2017-05-19T15:43:03.794Z,34.70
2017-05-19T16:22:40.237Z,36.83
2017-05-19T16:25:09.162Z,36.27
2017-05-19T16:27:38.091Z,30.85
2017-05-19T16:30:07.077Z,32.52
2017-05-19T16:32:36.009Z,32.03
2017-05-19T16:35:04.934Z,30.82
2017-05-19T16:44:59.316Z,30.97
2017-05-19T16:47:28.265Z,32.17
2017-05-19T16:49:57.214Z,31.07
2017-05-19T16:52:26.194Z,28.67
2017-05-19T16:54:55.141Z,27.22
2017-05-19T17:02:21.078Z,34.38
2017-05-19T17:04:50.031Z,33.35
2017-05-19T17:07:18.982Z,32.47
2017-05-19T17:14:44.893Z,34.17
2017-05-19T17:24:39.510Z,34.38
2017-05-19T17:27:08.456Z,32.25
2017-05-19T17:41:59.733Z,31.40
2017-05-19T17:44:28.706Z,34.57
2017-05-19T17:46:57.629Z,33.07
2017-05-19T17:49:26.573Z,30.88
2017-05-19T17:51:55.933Z,30.38
2017-05-19T17:54:24.886Z,29.40
2017-05-19T17:56:53.830Z,30.07
2017-05-19T17:59:22.809Z,27.48
2017-05-19T18:01:51.737Z,27.30
2017-05-19T18:04:20.674Z,30.55
2017-05-19T19:13:38.690Z,23.70
2017-05-19T19:16:07.614Z,22.88
2017-05-19T19:18:36.555Z,22.73
2017-05-19T19:21:05.503Z,21.32
2017-05-19T19:23:34.424Z,24.48
2017-05-19T19:26:03.371Z,26.60
2017-05-19T19:28:32.326Z,24.73
2017-05-19T19:31:01.246Z,22.88
2017-05-19T19:33:30.171Z,26.93
2017-05-19T19:35:59.135Z,27.82
2017-05-19T19:38:28.054Z,28.40
2017-05-19T19:40:56.986Z,30.32
2017-05-19T19:55:48.368Z,27.63
2017-05-19T19:58:17.350Z,26.75
2017-05-19T20:32:56.643Z,26.67
2017-05-19T20:35:25.620Z,25.42
2017-05-19T20:37:54.565Z,22.80
2017-05-19T20:40:23.508Z,25.67
2017-05-19T20:42:52.471Z,25.20
2017-05-19T20:45:21.417Z,26.48
2017-05-19T20:47:50.362Z,25.80
2017-05-19T20:50:19.317Z,25.62
2017-05-19T20:52:48.255Z,24.95
2017-05-19T20:55:17.206Z,26.77
2017-05-19T20:57:46.188Z,28.13
2017-05-19T21:00:15.133Z,29.92
2017-05-19T21:02:44.082Z,26.53
2017-05-19T21:05:13.062Z,26.23
2017-05-19T21:07:42.008Z,22.87
2017-05-19T21:10:10.952Z,24.63
2017-05-19T21:12:39.909Z,25.52
2017-05-19T21:15:08.856Z,25.60
2017-05-19T21:17:37.782Z,26.13
2017-05-19T21:20:06.753Z,24.57
2017-05-19T21:22:35.694Z,26.88
2017-05-19T21:25:04.646Z,29.87
2017-05-19T21:27:33.609Z,29.15
2017-05-19T21:30:02.537Z,27.27
2017-05-19T21:32:31.467Z,25.82
2017-05-19T21:35:00.423Z,28.37
2017-05-19T21:37:29.369Z,25.32
2017-05-19T21:39:58.304Z,24.05
2017-05-19T21:42:27.280Z,28.08
2017-05-19T21:44:56.215Z,23.65
2017-05-19T21:47:25.151Z,24.87
2017-05-19T21:49:54.112Z,23.30
2017-05-19T21:52:23.043Z,22.00
2017-05-19T21:54:51.989Z,21.93
2017-05-19T21:57:20.968Z,21.05
2017-05-19T21:59:49.893Z,21.17
2017-05-19T22:02:18.838Z,22.15
2017-05-19T22:04:47.799Z,20.95
2017-05-19T22:07:16.751Z,21.72
2017-05-19T22:09:45.693Z,20.38
2017-05-19T22:12:14.655Z,23.10
2017-05-19T22:14:43.608Z,21.85
2017-05-19T22:17:12.545Z,21.18
2017-05-19T22:19:41.514Z,20.70
2017-05-19T22:22:10.462Z,21.30
2017-05-19T22:24:39.389Z,20.07
2017-05-19T22:27:08.366Z,18.17
2017-05-19T22:29:37.294Z,18.55
2017-05-19T22:32:06.223Z,19.10
2017-05-19T22:34:35.201Z,21.75
2017-05-19T22:37:04.156Z,20.08
2017-05-19T22:39:33.086Z,20.02
2017-05-19T22:42:02.048Z,20.18
2017-05-19T22:44:30.998Z,17.37
2017-05-19T22:46:59.950Z,17.58
2017-05-19T22:49:28.902Z,16.25
2017-05-19T22:51:57.845Z,14.37
2017-05-19T22:54:26.800Z,14.63
2017-05-19T22:56:55.769Z,14.82
2017-05-19T22:59:24.695Z,14.58
2017-05-19T23:01:52.868Z,13.20
2017-05-19T23:04:21.819Z,14.33
2017-05-19T23:06:50.750Z,13.53
2017-05-19T23:09:19.673Z,13.72
2017-05-19T23:11:48.636Z,14.58
2017-05-19T23:14:17.564Z,14.07
2017-05-19T23:16:46.493Z,13.47
2017-05-19T23:19:15.440Z,14.37
2017-05-19T23:21:44.368Z,13.60
2017-05-19T23:24:13.297Z,13.03
2017-05-19T23:26:42.252Z,13.20
2017-05-19T23:29:11.179Z,13.15
2017-05-19T23:31:40.115Z,14.65
2017-05-19T23:34:09.096Z,12.45
2017-05-19T23:36:38.045Z,14.50
2017-05-19T23:39:06.970Z,13.28
2017-05-19T23:41:35.954Z,14.42
2017-05-19T23:44:04.898Z,14.28
2017-05-19T23:46:33.840Z,15.07
2017-05-19T23:49:02.826Z,14.47
2017-05-19T23:51:31.755Z,13.82
2017-05-19T23:54:00.697Z,14.98
2017-05-19T23:56:29.669Z,15.00
2017-05-19T23:58:58.618Z,14.38
